vendredi 16 mai 2014

ALERTE SPOTTING 16/05/14

320 F-GHQE Air Corsica (blanc avec titre)
   XK4511/XK4516  07h35/08h25

73H D-ABMU Air Berlin (winglet gauche TUI jaune)
 AB8154/AB8155 07h55/08h45

319 G-EZBR eazyJet (sticker '100 Airbus')
   U24242/U24243 09h05/09h35

73H I-NEOS Neos
   TO901/TO3314  16h00/16h50
 TO3315/TO902 22h10/23h00

Manque les prévisions de certains AB / AH / AZ / BA / BE / IB / KM / TP / TU
*** Heures en Local Time **
Prévisions matinales soumises à modifications de dernières minute.
 Voir le log du mois pour la version 'définitive' de la journée: 
 http://www.airkalo.com/ORLYAVIATION/Logdumois.html

le TAF de la journée:


METAR: LFPO 160300Z 05007KT CAVOK 07/04 Q1032 NOSIG=
TAF LONG: LFPO 152300Z 1600/1706 03010KT CAVOK TEMPO 1609/1613 FEW030=